KSSF/SSF METAR and TAF weather

Enter ICAO airport designator
Station Type Date Time Source
KSSF METAR 2021/03/06 00:53 UTC NOAA

KSSF 060053Z 35010G21KT 10SM CLR 22/02 A2998 RMK AO2 SLP146 T02170022


Station Type Date Time Source
KSSF Decoded METAR 2021/03/06 00:53 UTC NOAA

SAN ANTONIO STINSON MUNI, TX, United States (KSSF) 29-20N 098-28W 176M
Mar 05, 2021 - 07:53 PM EST / 2021.03.06 0053 UTC
Wind: from the N (350 degrees) at 12 MPH (10 KT) gusting to 24 MPH (21 KT):0
Visibility: 10 mile(s):0
Sky conditions: clear
Temperature: 71.1 F (21.7 C)
Dew Point: 36.0 F (2.2 C)
Relative Humidity: 27%
Pressure (altimeter): 29.98 in. Hg (1015 hPa)
ob: KSSF 060053Z 35010G21KT 10SM CLR 22/02 A2998 RMK AO2 SLP146 T02170022
cycle: 1

Station Type Date Time Source
KSSF TAF 2021/03/05 18:27 UTC NOAA

TAF KSSF 051724Z 0518/0618 29011KT P6SM SKC
FM052000 32013G23KT P6SM SCT250
FM060700 01012KT P6SM OVC020

Example: see airport list